createdAt,value
2023-05-22T00:06:52.594Z,5.07
2023-05-22T00:10:34.153Z,1.96
2023-05-22T00:17:55.913Z,3.64
2023-05-22T00:21:37.437Z,2.96
2023-05-22T00:25:19.166Z,4.95
2023-05-22T00:29:00.714Z,2.09
2023-05-22T00:32:42.319Z,2.40
2023-05-22T00:36:23.964Z,3.82
2023-05-22T00:40:05.551Z,4.54
2023-05-22T00:43:47.128Z,4.13
2023-05-22T00:47:28.917Z,4.19
2023-05-22T00:51:10.501Z,3.64
2023-05-22T00:54:52.127Z,3.34
2023-05-22T00:58:33.696Z,3.87
2023-05-22T01:02:15.409Z,4.98
2023-05-22T01:09:36.992Z,2.67
2023-05-22T01:13:18.620Z,2.09
2023-05-22T01:17:00.199Z,3.61
2023-05-22T01:20:41.872Z,3.78
2023-05-22T01:24:23.497Z,3.73
2023-05-22T01:28:06.105Z,2.28
2023-05-22T01:35:27.839Z,3.33
2023-05-22T01:46:29.622Z,0.00
2023-05-22T01:57:31.287Z,0.00
2023-05-22T02:08:32.996Z,0.00
2023-05-22T02:19:34.877Z,0.00
2023-05-22T02:30:36.709Z,0.00
2023-05-22T02:41:38.207Z,0.00
2023-05-22T02:48:59.854Z,1.80
2023-05-22T02:52:41.538Z,2.54
2023-05-22T03:03:43.377Z,0.00
2023-05-22T03:14:45.003Z,0.00
2023-05-22T03:22:06.723Z,3.51
2023-05-22T03:25:48.319Z,5.30
2023-05-22T03:29:29.984Z,4.29
2023-05-22T03:33:11.874Z,4.68
2023-05-22T03:36:53.429Z,4.11
2023-05-22T03:40:35.072Z,2.89
2023-05-22T03:44:16.717Z,4.56
2023-05-22T03:47:58.409Z,2.91
2023-05-22T03:55:20.082Z,5.58
2023-05-22T03:59:01.779Z,3.53
2023-05-22T04:02:43.444Z,2.74
2023-05-22T04:06:24.899Z,2.86
2023-05-22T04:10:06.560Z,4.43
2023-05-22T04:13:48.222Z,3.40
2023-05-22T04:24:49.981Z,0.00
2023-05-22T04:28:31.550Z,4.41
2023-05-22T04:32:13.144Z,2.83
2023-05-22T04:43:14.902Z,0.00
2023-05-22T04:54:16.628Z,3.50
2023-05-22T04:57:58.250Z,2.94
2023-05-22T05:05:19.926Z,3.25
2023-05-22T05:12:41.598Z,2.61
2023-05-22T05:16:23.400Z,3.86
2023-05-22T05:20:05.007Z,4.42
2023-05-22T05:23:46.619Z,3.91
2023-05-22T05:27:28.360Z,4.04
2023-05-22T05:31:09.828Z,2.78
2023-05-22T05:34:51.596Z,4.26
2023-05-22T05:38:33.216Z,3.44
2023-05-22T05:42:14.832Z,3.82
2023-05-22T05:45:56.458Z,3.03
2023-05-22T05:49:37.980Z,2.48
2023-05-22T05:56:59.683Z,3.28
2023-05-22T06:00:41.705Z,3.30
2023-05-22T06:04:23.229Z,6.14
2023-05-22T06:08:04.935Z,4.30
2023-05-22T06:11:46.523Z,5.79
2023-05-22T06:15:28.194Z,4.58
2023-05-22T06:19:09.975Z,5.06
2023-05-22T06:22:51.621Z,3.97
2023-05-22T06:26:33.342Z,3.98
2023-05-22T06:30:20.340Z,3.99
2023-05-22T06:33:56.723Z,3.38
2023-05-22T06:44:58.557Z,0.00
2023-05-22T06:56:00.125Z,0.00
2023-05-22T07:07:01.843Z,0.00
2023-05-22T07:10:43.375Z,1.90
2023-05-22T07:21:45.100Z,0.00
2023-05-22T07:29:06.986Z,4.25
2023-05-22T07:32:48.854Z,4.68
2023-05-22T07:36:30.460Z,4.52
2023-05-22T07:40:12.126Z,2.97
2023-05-22T07:47:34.094Z,1.96
2023-05-22T07:51:15.484Z,3.95
2023-05-22T07:54:57.253Z,3.55
2023-05-22T07:58:39.035Z,3.77
2023-05-22T08:02:20.753Z,3.12
2023-05-22T08:06:02.636Z,2.90
2023-05-22T08:09:44.025Z,3.06
2023-05-22T08:13:25.753Z,2.95
2023-05-22T08:17:07.571Z,3.88
2023-05-22T08:20:49.180Z,2.56
2023-05-22T08:24:30.978Z,5.78
2023-05-22T08:28:12.529Z,3.72
2023-05-22T08:31:54.214Z,3.78
2023-05-22T08:35:35.901Z,3.57
2023-05-22T08:39:17.487Z,2.16
2023-05-22T08:42:59.183Z,3.46
2023-05-22T08:46:40.789Z,2.87
2023-05-22T08:50:22.395Z,3.06
2023-05-22T08:54:03.998Z,2.27
2023-05-22T09:01:25.923Z,3.67
2023-05-22T09:05:07.420Z,3.13
2023-05-22T09:08:51.266Z,2.09
2023-05-22T09:12:30.667Z,3.09
2023-05-22T09:16:12.406Z,4.24
2023-05-22T09:19:54.171Z,2.70
2023-05-22T09:23:35.629Z,2.83
2023-05-22T09:27:17.322Z,3.07
2023-05-22T09:30:59.790Z,2.71
2023-05-22T09:34:40.523Z,3.09
2023-05-22T09:38:22.229Z,3.32
2023-05-22T09:42:03.888Z,3.98
2023-05-22T09:45:45.592Z,3.75
2023-05-22T09:49:27.265Z,4.37
2023-05-22T09:53:09.044Z,4.92
2023-05-22T09:56:50.819Z,3.45
2023-05-22T10:00:32.441Z,4.32
2023-05-22T10:04:14.315Z,4.54
2023-05-22T10:07:55.795Z,3.46
2023-05-22T10:11:37.640Z,4.91
2023-05-22T10:15:19.659Z,3.90
2023-05-22T10:19:01.296Z,3.86
2023-05-22T10:22:43.052Z,6.25
2023-05-22T10:26:24.844Z,4.64
2023-05-22T10:30:06.655Z,5.27
2023-05-22T10:33:48.471Z,3.23
2023-05-22T10:37:30.054Z,7.22
2023-05-22T10:41:11.922Z,5.89
2023-05-22T10:44:53.680Z,5.05
2023-05-22T10:48:35.489Z,4.76
2023-05-22T10:52:17.330Z,3.08
2023-05-22T10:55:58.915Z,5.26
2023-05-22T10:59:40.628Z,4.42
2023-05-22T11:03:22.498Z,4.90
2023-05-22T11:07:04.319Z,4.95
2023-05-22T11:10:46.239Z,4.68
2023-05-22T11:14:27.986Z,5.79
2023-05-22T11:18:09.871Z,6.90
2023-05-22T11:21:51.684Z,4.99
2023-05-22T11:25:33.449Z,7.12
2023-05-22T11:29:15.447Z,6.36
2023-05-22T11:32:57.182Z,6.06
2023-05-22T11:36:38.791Z,4.49
2023-05-22T11:40:20.640Z,4.55
2023-05-22T11:44:02.472Z,5.34
2023-05-22T11:47:44.352Z,4.47
2023-05-22T11:51:26.072Z,6.86
2023-05-22T11:55:10.080Z,5.91
2023-05-22T11:58:50.068Z,7.11
2023-05-22T12:02:32.067Z,6.33
2023-05-22T12:06:15.822Z,4.68
2023-05-22T12:09:55.461Z,5.18
2023-05-22T12:13:37.216Z,3.63
2023-05-22T12:17:19.020Z,5.02
2023-05-22T12:21:00.833Z,4.35
2023-05-22T12:24:42.780Z,7.15
2023-05-22T12:28:24.443Z,7.09
2023-05-22T12:32:06.348Z,6.04
2023-05-22T12:35:48.122Z,7.13
2023-05-22T12:39:29.913Z,5.03
2023-05-22T12:43:11.857Z,4.92
2023-05-22T12:46:53.526Z,5.35
2023-05-22T12:50:35.249Z,4.12
2023-05-22T12:54:16.943Z,4.98
2023-05-22T12:57:58.759Z,5.36
2023-05-22T13:01:40.588Z,3.20
2023-05-22T13:05:22.384Z,7.07
2023-05-22T13:09:03.992Z,5.08
2023-05-22T13:12:45.788Z,5.63
2023-05-22T13:16:27.804Z,6.08
2023-05-22T13:20:09.642Z,5.07
2023-05-22T13:23:51.164Z,4.07
2023-05-22T13:27:34.009Z,5.23
2023-05-22T13:31:14.793Z,4.47
2023-05-22T13:34:56.545Z,5.72
2023-05-22T13:38:38.323Z,3.56
2023-05-22T13:42:19.875Z,4.76
2023-05-22T13:46:01.749Z,4.95
2023-05-22T13:49:43.556Z,5.39
2023-05-22T13:53:25.223Z,4.34
2023-05-22T13:57:07.071Z,4.42
2023-05-22T14:00:48.727Z,5.22
2023-05-22T14:04:30.441Z,6.37
2023-05-22T14:08:12.158Z,3.95
2023-05-22T14:11:53.859Z,5.20
2023-05-22T14:15:35.695Z,4.67
2023-05-22T14:19:17.412Z,5.70
2023-05-22T14:22:59.037Z,4.61
2023-05-22T14:26:40.713Z,3.74
2023-05-22T14:30:22.330Z,3.46
2023-05-22T14:34:04.205Z,4.62
2023-05-22T14:37:45.797Z,5.12
2023-05-22T14:41:27.603Z,5.03
2023-05-22T14:45:09.355Z,4.66
2023-05-22T14:48:50.994Z,3.37
2023-05-22T14:52:32.813Z,3.63
2023-05-22T14:56:14.411Z,6.53
2023-05-22T14:59:56.179Z,6.15
2023-05-22T15:03:37.950Z,5.25
2023-05-22T15:07:19.793Z,5.78
2023-05-22T15:11:01.591Z,4.22
2023-05-22T15:14:43.289Z,4.42
2023-05-22T15:18:25.141Z,5.39
2023-05-22T15:22:19.575Z,4.84
2023-05-22T15:25:48.543Z,4.16
2023-05-22T15:29:30.426Z,3.63
2023-05-22T15:33:12.162Z,5.39
2023-05-22T15:36:53.951Z,4.71
2023-05-22T15:40:35.729Z,6.78
2023-05-22T15:44:17.390Z,3.73
2023-05-22T15:47:59.310Z,4.59
2023-05-22T15:51:40.900Z,5.33
2023-05-22T15:55:22.492Z,2.83
2023-05-22T15:59:04.267Z,4.78
2023-05-22T16:02:46.143Z,4.93
2023-05-22T16:06:27.752Z,2.09
2023-05-22T16:10:09.207Z,2.09
2023-05-22T16:13:50.834Z,3.47
2023-05-22T16:24:52.725Z,2.38
2023-05-22T16:28:34.173Z,1.90
2023-05-22T16:32:15.741Z,2.29
2023-05-22T16:35:57.314Z,1.90
2023-05-22T16:39:38.984Z,3.84
2023-05-22T16:43:20.774Z,3.77
2023-05-22T16:50:42.296Z,3.07
2023-05-22T16:54:23.968Z,3.23
2023-05-22T16:58:05.731Z,3.41
2023-05-22T17:01:47.601Z,4.98
2023-05-22T17:05:29.175Z,4.21
2023-05-22T17:09:10.741Z,2.48
2023-05-22T17:16:32.436Z,2.65
2023-05-22T17:20:14.238Z,4.17
2023-05-22T17:23:55.768Z,2.48
2023-05-22T17:31:17.575Z,4.04
2023-05-22T17:34:59.346Z,2.79
2023-05-22T17:46:01.572Z,0.00
2023-05-22T17:53:23.409Z,2.09
2023-05-22T17:57:05.221Z,2.22
2023-05-22T18:08:07.448Z,1.96
2023-05-22T18:11:49.269Z,1.70
2023-05-22T18:22:51.388Z,0.00
2023-05-22T18:26:33.435Z,2.48
2023-05-22T18:37:35.404Z,0.00
2023-05-22T18:48:37.642Z,0.00
2023-05-22T18:59:39.602Z,0.00
2023-05-22T19:10:42.054Z,0.00
2023-05-22T19:21:43.832Z,0.00
2023-05-22T19:32:46.042Z,0.00
2023-05-22T19:43:48.086Z,3.77
2023-05-22T19:54:50.289Z,0.00
2023-05-22T20:05:52.149Z,0.00
2023-05-22T20:09:33.906Z,2.48
2023-05-22T20:13:15.643Z,2.09
2023-05-22T20:24:17.511Z,0.00
2023-05-22T20:35:19.663Z,0.00
2023-05-22T20:46:21.560Z,0.00
2023-05-22T20:57:23.562Z,0.00
2023-05-22T21:08:25.203Z,0.00
2023-05-22T21:12:06.784Z,1.70
2023-05-22T21:23:08.636Z,0.00
2023-05-22T21:34:10.275Z,0.00
2023-05-22T21:37:51.812Z,2.09
2023-05-22T21:48:53.673Z,0.00
2023-05-22T21:59:55.266Z,0.00
2023-05-22T22:10:57.153Z,0.00
2023-05-22T22:22:01.786Z,0.00
2023-05-22T22:33:03.756Z,0.00
2023-05-22T22:40:26.798Z,2.09
2023-05-22T22:51:27.064Z,0.00
2023-05-22T23:02:28.742Z,0.00
2023-05-22T23:13:30.600Z,0.00
2023-05-22T23:24:32.171Z,0.00
2023-05-22T23:35:33.987Z,0.00
2023-05-22T23:46:35.643Z,0.00
2023-05-22T23:57:37.484Z,0.00
